createdAt,value
2018-10-17T00:00:00.670Z,17.10
2018-10-17T00:02:29.597Z,17.10
2018-10-17T00:04:58.441Z,17.10
2018-10-17T00:07:27.370Z,17.20
2018-10-17T00:09:56.901Z,17.20
2018-10-17T00:12:25.699Z,17.20
2018-10-17T00:14:54.496Z,17.20
2018-10-17T00:17:23.335Z,17.20
2018-10-17T00:19:52.093Z,17.20
2018-10-17T00:22:20.962Z,17.20
2018-10-17T00:24:49.785Z,17.20
2018-10-17T00:27:18.657Z,17.10
2018-10-17T00:29:47.509Z,17.10
2018-10-17T00:32:16.647Z,17.10
2018-10-17T00:34:45.398Z,17.10
2018-10-17T00:37:14.596Z,17.00
2018-10-17T00:39:43.602Z,17.00
2018-10-17T00:42:12.366Z,17.00
2018-10-17T00:44:41.198Z,17.00
2018-10-17T00:47:10.317Z,17.00
2018-10-17T00:49:39.064Z,16.90
2018-10-17T00:52:07.927Z,16.90
2018-10-17T00:54:36.716Z,16.90
2018-10-17T00:57:05.526Z,16.80
2018-10-17T00:59:34.366Z,16.80
2018-10-17T01:02:03.434Z,16.70
2018-10-17T01:04:32.244Z,16.70
2018-10-17T01:07:01.024Z,16.70
2018-10-17T01:09:29.823Z,16.60
2018-10-17T01:11:58.574Z,16.60
2018-10-17T01:14:27.425Z,16.60
2018-10-17T01:16:56.230Z,16.50
2018-10-17T01:19:25.104Z,16.50
2018-10-17T01:21:53.875Z,16.50
2018-10-17T01:24:22.712Z,16.40
2018-10-17T01:26:51.774Z,16.40
2018-10-17T01:29:20.627Z,16.40
2018-10-17T01:31:49.373Z,16.40
2018-10-17T01:34:18.317Z,16.30
2018-10-17T01:36:47.126Z,16.30
2018-10-17T01:39:15.851Z,16.30
2018-10-17T01:41:44.610Z,16.20
2018-10-17T01:44:13.461Z,16.20
2018-10-17T01:46:44.529Z,16.20
2018-10-17T01:49:16.380Z,16.20
2018-10-17T01:51:46.162Z,16.10
2018-10-17T01:54:14.920Z,16.10
2018-10-17T01:56:43.681Z,16.10
2018-10-17T01:59:12.527Z,16.10
2018-10-17T02:01:41.241Z,16.10
2018-10-17T02:04:09.925Z,16.10
2018-10-17T02:06:38.773Z,16.00
2018-10-17T02:09:08.963Z,16.10
2018-10-17T02:11:38.242Z,16.00
2018-10-17T02:14:07.201Z,16.00
2018-10-17T02:16:36.066Z,16.00
2018-10-17T02:19:05.079Z,16.00
2018-10-17T02:21:33.806Z,15.90
2018-10-17T02:24:02.567Z,15.90
2018-10-17T02:26:31.357Z,15.90
2018-10-17T02:29:00.187Z,15.90
2018-10-17T02:31:29.007Z,15.80
2018-10-17T02:33:57.780Z,15.80
2018-10-17T02:36:26.667Z,15.80
2018-10-17T02:38:55.437Z,15.80
2018-10-17T02:41:25.313Z,15.80
2018-10-17T02:43:54.345Z,15.80
2018-10-17T02:46:23.052Z,15.70
2018-10-17T02:48:51.857Z,15.70
2018-10-17T02:51:20.711Z,15.70
2018-10-17T02:53:49.523Z,15.60
2018-10-17T02:56:18.387Z,15.60
2018-10-17T02:58:47.135Z,15.60
2018-10-17T03:01:16.016Z,15.60
2018-10-17T03:03:44.718Z,15.60
2018-10-17T03:06:13.574Z,15.60
2018-10-17T03:08:42.457Z,15.50
2018-10-17T03:11:11.802Z,15.60
2018-10-17T03:13:40.555Z,15.60
2018-10-17T03:16:09.405Z,15.50
2018-10-17T03:18:38.305Z,15.60
2018-10-17T03:21:07.255Z,15.60
2018-10-17T03:23:36.169Z,15.50
2018-10-17T03:26:05.182Z,15.60
2018-10-17T03:28:33.883Z,15.60
2018-10-17T03:31:02.862Z,15.60
2018-10-17T03:33:31.738Z,15.50
2018-10-17T03:36:00.631Z,15.60
2018-10-17T03:38:29.436Z,15.50
2018-10-17T03:40:58.235Z,15.50
2018-10-17T03:43:27.157Z,15.60
2018-10-17T03:45:56.144Z,15.60
2018-10-17T03:48:24.928Z,15.60
2018-10-17T03:50:53.814Z,15.70
2018-10-17T03:53:22.627Z,15.70
2018-10-17T03:55:51.362Z,15.70
2018-10-17T03:58:20.430Z,15.70
2018-10-17T04:00:49.303Z,15.70
2018-10-17T04:03:18.410Z,15.70
2018-10-17T04:05:47.223Z,15.60
2018-10-17T04:08:15.919Z,15.60
2018-10-17T04:10:44.769Z,15.60
2018-10-17T04:13:13.512Z,15.60
2018-10-17T04:15:42.456Z,15.60
2018-10-17T04:18:11.287Z,15.60
2018-10-17T04:20:40.041Z,15.70
2018-10-17T04:23:09.084Z,15.70
2018-10-17T04:25:37.933Z,15.70
2018-10-17T04:28:06.697Z,15.60
2018-10-17T04:30:35.458Z,15.60
2018-10-17T04:33:04.264Z,15.70
2018-10-17T04:35:33.111Z,15.60
2018-10-17T04:38:01.980Z,15.60
2018-10-17T04:40:31.481Z,15.60
2018-10-17T04:43:00.334Z,15.60
2018-10-17T04:45:29.157Z,15.60
2018-10-17T04:47:58.076Z,15.50
2018-10-17T04:50:26.820Z,15.50
2018-10-17T04:52:55.605Z,15.50
2018-10-17T04:55:24.416Z,15.50
2018-10-17T04:57:53.244Z,15.50
2018-10-17T05:00:21.919Z,15.50
2018-10-17T05:02:50.728Z,15.50
2018-10-17T05:05:19.546Z,15.20
2018-10-17T05:07:48.358Z,15.40
2018-10-17T05:10:17.308Z,15.40
2018-10-17T05:12:46.156Z,15.40
2018-10-17T05:15:15.069Z,15.40
2018-10-17T05:17:43.782Z,15.40
2018-10-17T05:20:12.601Z,15.30
2018-10-17T05:22:41.404Z,15.30
2018-10-17T05:25:10.482Z,15.30
2018-10-17T05:27:39.218Z,15.30
2018-10-17T05:30:20.350Z,15.20
2018-10-17T05:32:49.268Z,15.20
2018-10-17T05:35:18.087Z,15.20
2018-10-17T05:37:46.901Z,15.20
2018-10-17T05:40:15.705Z,15.20
2018-10-17T05:42:44.656Z,15.20
2018-10-17T05:45:13.473Z,15.10
2018-10-17T05:47:42.461Z,15.10
2018-10-17T05:50:11.280Z,15.10
2018-10-17T05:52:40.073Z,15.10
2018-10-17T05:55:09.153Z,15.10
2018-10-17T05:57:37.938Z,15.10
2018-10-17T06:00:08.401Z,15.00
2018-10-17T06:02:38.076Z,15.00
2018-10-17T06:05:08.161Z,15.00
2018-10-17T06:07:36.994Z,15.00
2018-10-17T06:10:06.699Z,15.00
2018-10-17T06:12:35.675Z,14.90
2018-10-17T06:15:04.504Z,14.90
2018-10-17T06:17:33.489Z,14.90
2018-10-17T06:20:02.368Z,14.90
2018-10-17T06:22:31.232Z,15.00
2018-10-17T06:25:00.103Z,15.00
2018-10-17T06:27:28.948Z,15.00
2018-10-17T06:29:57.879Z,15.00
2018-10-17T06:32:26.768Z,15.10
2018-10-17T06:34:55.528Z,15.10
2018-10-17T06:37:24.303Z,15.10
2018-10-17T06:39:53.226Z,15.10
2018-10-17T06:42:22.119Z,15.10
2018-10-17T06:44:50.864Z,15.10
2018-10-17T06:47:19.805Z,15.10
2018-10-17T06:49:48.578Z,15.10
2018-10-17T06:52:17.376Z,15.10
2018-10-17T06:54:46.209Z,15.00
2018-10-17T06:57:15.057Z,15.10
2018-10-17T06:59:44.445Z,15.10
2018-10-17T07:02:13.307Z,15.10
2018-10-17T07:04:41.958Z,15.10
2018-10-17T07:07:10.904Z,15.10
2018-10-17T07:09:39.681Z,15.10
2018-10-17T07:12:08.528Z,15.10
2018-10-17T07:14:37.420Z,15.10
2018-10-17T07:17:06.423Z,15.10
2018-10-17T07:19:35.320Z,15.10
2018-10-17T07:22:05.080Z,15.10
2018-10-17T07:24:33.976Z,15.10
2018-10-17T07:27:02.807Z,15.10
2018-10-17T07:29:31.782Z,15.10
2018-10-17T07:32:00.591Z,15.10
2018-10-17T07:34:29.428Z,15.10
2018-10-17T07:36:58.196Z,15.10
2018-10-17T07:39:27.076Z,15.10
2018-10-17T07:41:55.868Z,15.20
2018-10-17T07:44:24.522Z,15.20
2018-10-17T07:46:53.580Z,15.20
2018-10-17T07:49:22.405Z,15.20
2018-10-17T07:51:51.307Z,15.20
2018-10-17T07:54:20.261Z,15.20
2018-10-17T07:56:49.251Z,15.20
2018-10-17T07:59:18.149Z,15.20
2018-10-17T08:01:47.071Z,15.20
2018-10-17T08:04:16.005Z,15.20
2018-10-17T08:06:44.879Z,15.20
2018-10-17T08:09:13.607Z,15.30
2018-10-17T08:11:42.378Z,15.30
2018-10-17T08:14:11.387Z,15.30
2018-10-17T08:16:40.210Z,15.40
2018-10-17T08:19:09.125Z,15.40
2018-10-17T08:21:37.940Z,15.50
2018-10-17T08:24:06.949Z,15.60
2018-10-17T08:26:35.754Z,15.70
2018-10-17T08:29:04.559Z,15.90
2018-10-17T08:31:33.416Z,16.00
2018-10-17T08:34:02.189Z,16.20
2018-10-17T08:36:31.151Z,16.20
2018-10-17T08:38:59.773Z,16.30
2018-10-17T08:41:28.567Z,16.40
2018-10-17T08:43:57.390Z,16.50
2018-10-17T08:46:26.460Z,16.60
2018-10-17T08:48:55.202Z,16.60
2018-10-17T08:51:23.980Z,16.70
2018-10-17T08:53:52.842Z,16.70
2018-10-17T08:56:21.561Z,16.80
2018-10-17T08:58:50.386Z,16.70
2018-10-17T09:01:19.271Z,16.80
2018-10-17T09:03:48.106Z,16.90
2018-10-17T09:06:17.126Z,17.00
2018-10-17T09:08:45.923Z,17.10
2018-10-17T09:11:14.815Z,17.10
2018-10-17T09:13:43.608Z,17.20
2018-10-17T09:16:12.522Z,17.30
2018-10-17T09:18:41.342Z,17.30
2018-10-17T09:21:10.477Z,17.40
2018-10-17T09:23:39.084Z,17.40
2018-10-17T09:26:07.992Z,17.50
2018-10-17T09:28:36.788Z,17.60
2018-10-17T09:31:05.815Z,17.70
2018-10-17T09:33:35.060Z,17.80
2018-10-17T09:36:04.165Z,17.90
2018-10-17T09:38:33.045Z,17.90
2018-10-17T09:41:01.902Z,18.00
2018-10-17T09:43:30.676Z,18.10
2018-10-17T09:45:59.566Z,18.20
2018-10-17T09:48:28.483Z,18.20
2018-10-17T09:50:57.495Z,18.30
2018-10-17T09:53:26.775Z,18.40
2018-10-17T09:55:55.531Z,18.40
2018-10-17T09:58:24.404Z,18.50
2018-10-17T10:00:58.601Z,18.50
2018-10-17T10:03:27.427Z,18.60
2018-10-17T10:05:56.412Z,18.60
2018-10-17T10:08:25.231Z,18.70
2018-10-17T10:10:54.100Z,18.80
2018-10-17T10:13:22.922Z,18.90
2018-10-17T10:15:51.906Z,19.00
2018-10-17T10:18:20.668Z,19.00
2018-10-17T10:20:49.517Z,19.10
2018-10-17T10:23:18.388Z,19.20
2018-10-17T10:25:47.114Z,19.30
2018-10-17T10:28:16.131Z,19.30
2018-10-17T10:30:44.896Z,19.40
2018-10-17T10:33:13.890Z,19.40
2018-10-17T10:35:42.729Z,19.50
2018-10-17T10:38:12.471Z,19.60
2018-10-17T10:40:41.426Z,19.60
2018-10-17T10:43:10.259Z,19.70
2018-10-17T10:45:40.065Z,19.60
2018-10-17T10:48:08.761Z,19.60
2018-10-17T10:50:38.489Z,19.60
2018-10-17T10:53:07.423Z,19.60
2018-10-17T10:55:36.195Z,19.60
2018-10-17T10:58:05.180Z,19.60
2018-10-17T11:00:34.517Z,19.70
2018-10-17T11:03:03.378Z,19.80
2018-10-17T11:05:32.287Z,19.80
2018-10-17T11:08:08.413Z,19.90
2018-10-17T11:10:37.114Z,20.00
2018-10-17T11:13:07.155Z,20.10
2018-10-17T11:15:37.004Z,20.20
2018-10-17T11:18:06.076Z,20.40
2018-10-17T11:20:34.891Z,20.40
2018-10-17T11:23:03.784Z,20.50
2018-10-17T11:25:32.593Z,20.60
2018-10-17T11:28:09.885Z,20.50
2018-10-17T11:30:38.627Z,20.50
2018-10-17T11:33:07.591Z,20.60
2018-10-17T11:35:36.529Z,20.60
2018-10-17T11:38:05.514Z,20.60
2018-10-17T11:40:34.518Z,20.70
2018-10-17T11:43:03.510Z,20.80
2018-10-17T11:45:32.459Z,20.90
2018-10-17T11:48:01.272Z,20.90
2018-10-17T11:50:30.075Z,21.00
2018-10-17T11:52:58.903Z,21.20
2018-10-17T11:55:27.825Z,21.30
2018-10-17T11:57:56.742Z,21.40
2018-10-17T12:00:25.558Z,21.50
2018-10-17T12:02:54.523Z,21.70
2018-10-17T12:05:23.522Z,21.90
2018-10-17T12:07:52.173Z,22.20
2018-10-17T12:10:21.043Z,22.40
2018-10-17T12:12:49.931Z,22.60
2018-10-17T12:15:18.905Z,22.80
2018-10-17T12:17:47.905Z,23.10
2018-10-17T12:20:16.733Z,23.40
2018-10-17T12:22:46.050Z,24.10
2018-10-17T12:25:15.331Z,24.60
2018-10-17T12:27:44.239Z,24.80
2018-10-17T12:30:14.271Z,24.80
2018-10-17T12:32:43.141Z,24.60
2018-10-17T12:35:12.394Z,24.50
2018-10-17T12:37:41.197Z,24.40
2018-10-17T12:40:11.019Z,24.50
2018-10-17T12:42:39.864Z,25.30
2018-10-17T12:45:08.874Z,26.60
2018-10-17T12:47:37.658Z,27.50
2018-10-17T12:50:08.229Z,28.20
2018-10-17T12:52:37.182Z,28.50
2018-10-17T12:55:07.399Z,28.30
2018-10-17T12:57:36.187Z,27.60
2018-10-17T13:00:05.614Z,27.40
2018-10-17T13:02:34.403Z,27.90
2018-10-17T13:05:03.838Z,28.60
2018-10-17T13:07:32.709Z,29.30
2018-10-17T13:10:01.602Z,30.00
2018-10-17T13:12:30.375Z,31.00
2018-10-17T13:14:59.197Z,31.90
2018-10-17T13:17:27.978Z,32.00
2018-10-17T13:19:56.857Z,31.80
2018-10-17T13:22:25.820Z,31.30
2018-10-17T13:24:54.660Z,30.60
2018-10-17T13:27:23.519Z,29.70
2018-10-17T13:29:52.320Z,29.10
2018-10-17T13:32:21.075Z,28.80
2018-10-17T13:34:49.900Z,28.30
2018-10-17T13:37:18.838Z,27.70
2018-10-17T13:39:47.595Z,27.30
2018-10-17T13:42:16.501Z,27.00
2018-10-17T13:44:45.290Z,26.90
2018-10-17T13:47:14.186Z,26.90
2018-10-17T13:49:43.044Z,27.00
2018-10-17T13:52:11.851Z,27.10
2018-10-17T13:54:40.748Z,27.00
2018-10-17T13:57:09.594Z,26.80
2018-10-17T13:59:38.505Z,26.80
2018-10-17T14:02:07.289Z,26.80
2018-10-17T14:04:36.984Z,26.80
2018-10-17T14:07:06.919Z,26.80
2018-10-17T14:09:35.636Z,26.80
2018-10-17T14:12:04.501Z,27.10
2018-10-17T14:14:33.385Z,27.30
2018-10-17T14:17:02.255Z,27.30
2018-10-17T14:19:31.135Z,27.20
2018-10-17T14:21:59.911Z,27.20
2018-10-17T14:24:28.746Z,26.90
2018-10-17T14:26:57.607Z,26.60
2018-10-17T14:29:26.504Z,26.30
2018-10-17T14:31:55.933Z,26.20
2018-10-17T14:34:24.814Z,25.90
2018-10-17T14:36:53.825Z,26.10
2018-10-17T14:39:22.916Z,26.40
2018-10-17T14:41:51.694Z,26.20
2018-10-17T14:44:22.646Z,25.90
2018-10-17T14:46:51.565Z,25.60
2018-10-17T14:49:20.324Z,25.30
2018-10-17T14:51:49.166Z,25.10
2018-10-17T14:54:18.097Z,24.80
2018-10-17T14:56:46.841Z,24.60
2018-10-17T14:59:15.826Z,24.40
2018-10-17T15:01:44.690Z,24.20
2018-10-17T15:04:13.722Z,24.10
2018-10-17T15:06:42.650Z,24.00
2018-10-17T15:09:15.564Z,24.00
2018-10-17T15:11:46.743Z,23.90
2018-10-17T15:14:17.481Z,23.90
2018-10-17T15:16:46.392Z,23.80
2018-10-17T15:19:18.065Z,23.80
2018-10-17T15:21:46.847Z,23.70
2018-10-17T15:24:15.589Z,23.60
2018-10-17T15:26:44.326Z,23.40
2018-10-17T15:29:13.150Z,23.20
2018-10-17T15:31:41.893Z,23.00
2018-10-17T15:34:10.740Z,22.90
2018-10-17T15:36:39.623Z,22.60
2018-10-17T15:39:10.684Z,22.50
2018-10-17T15:41:39.641Z,22.40
2018-10-17T15:44:09.116Z,22.30
2018-10-17T15:46:39.346Z,22.20
2018-10-17T15:49:08.254Z,22.10
2018-10-17T15:51:37.342Z,22.00
2018-10-17T15:54:06.212Z,21.80
2018-10-17T15:56:35.119Z,21.60
2018-10-17T15:59:03.987Z,21.50
2018-10-17T16:01:32.750Z,21.30
2018-10-17T16:04:07.151Z,21.20
2018-10-17T16:06:40.860Z,21.00
2018-10-17T16:09:15.512Z,20.90
2018-10-17T16:11:51.561Z,20.70
2018-10-17T16:14:25.891Z,20.60
2018-10-17T16:17:00.399Z,20.50
2018-10-17T16:19:34.747Z,20.40
2018-10-17T16:22:09.603Z,20.30
2018-10-17T16:24:42.987Z,20.20
2018-10-17T16:27:16.774Z,20.10
2018-10-17T16:29:51.323Z,20.00
2018-10-17T16:32:25.251Z,19.90
2018-10-17T16:34:59.237Z,19.80
2018-10-17T16:37:32.309Z,19.70
2018-10-17T16:40:07.617Z,19.60
2018-10-17T16:42:41.390Z,19.50
2018-10-17T16:45:15.674Z,19.50
2018-10-17T16:50:38.294Z,19.40
2018-10-17T16:53:11.203Z,19.20
2018-10-17T16:55:44.674Z,19.20
2018-10-17T16:58:18.715Z,19.10
2018-10-17T17:00:52.097Z,19.00
2018-10-17T17:03:26.660Z,19.10
2018-10-17T17:05:59.084Z,19.00
2018-10-17T17:08:34.209Z,19.10
2018-10-17T17:11:09.021Z,19.00
2018-10-17T17:13:43.279Z,19.00
2018-10-17T17:16:16.195Z,19.00
2018-10-17T17:18:51.013Z,18.90
2018-10-17T17:21:24.160Z,18.80
2018-10-17T17:23:59.524Z,18.80
2018-10-17T17:26:32.649Z,18.80
2018-10-17T17:29:06.914Z,18.70
2018-10-17T17:31:40.866Z,18.60
2018-10-17T17:34:22.933Z,18.70
2018-10-17T17:37:16.001Z,18.60
2018-10-17T17:40:18.664Z,18.60
2018-10-17T17:46:08.875Z,18.60
2018-10-17T17:48:46.357Z,18.60
2018-10-17T17:51:31.625Z,18.70
2018-10-17T17:54:40.241Z,18.70
2018-10-17T17:57:24.256Z,18.60
2018-10-17T18:00:05.773Z,18.60
2018-10-17T18:02:44.264Z,18.60
2018-10-17T18:05:25.178Z,18.60
2018-10-17T18:08:04.146Z,18.60
2018-10-17T18:10:46.242Z,18.50
2018-10-17T18:13:19.151Z,18.50
2018-10-17T18:15:52.678Z,18.40
2018-10-17T18:18:28.233Z,18.40
2018-10-17T18:21:03.362Z,18.40
2018-10-17T18:23:37.730Z,18.40
2018-10-17T18:26:13.845Z,18.40
2018-10-17T18:28:47.525Z,18.30
2018-10-17T18:31:21.738Z,18.30
2018-10-17T18:33:57.508Z,18.30
2018-10-17T18:36:32.151Z,18.30
2018-10-17T18:39:07.219Z,18.30
2018-10-17T18:41:42.764Z,18.30
2018-10-17T18:45:05.475Z,18.30
2018-10-17T18:47:40.975Z,18.30
2018-10-17T18:50:15.195Z,18.20
2018-10-17T18:52:49.361Z,18.20
2018-10-17T18:55:21.674Z,18.20
2018-10-17T18:57:55.006Z,18.20
2018-10-17T19:00:29.369Z,18.20
2018-10-17T19:03:03.052Z,18.20
2018-10-17T19:05:35.010Z,18.20
2018-10-17T19:08:08.358Z,18.10
2018-10-17T19:10:41.665Z,18.10
2018-10-17T19:13:16.061Z,18.00
2018-10-17T19:15:48.861Z,18.00
2018-10-17T19:18:21.770Z,18.00
2018-10-17T19:20:54.690Z,18.00
2018-10-17T19:23:30.408Z,18.00
2018-10-17T19:26:04.249Z,18.00
2018-10-17T19:28:38.132Z,18.00
2018-10-17T19:31:15.006Z,17.90
2018-10-17T19:33:48.372Z,17.90
2018-10-17T19:36:22.319Z,17.80
2018-10-17T19:38:56.112Z,17.70
2018-10-17T19:41:30.257Z,17.70
2018-10-17T19:44:04.217Z,17.70
2018-10-17T19:46:38.678Z,17.70
2018-10-17T19:49:12.739Z,17.50
2018-10-17T19:51:57.851Z,17.50
2018-10-17T19:54:37.126Z,17.50
2018-10-17T19:57:10.091Z,17.50
2018-10-17T19:59:44.539Z,17.50
2018-10-17T20:02:19.360Z,17.40
2018-10-17T20:04:52.922Z,17.40
2018-10-17T20:07:26.695Z,17.40
2018-10-17T20:10:01.363Z,17.30
2018-10-17T20:12:37.637Z,17.30
2018-10-17T20:15:13.899Z,17.30
2018-10-17T20:17:48.636Z,17.30
2018-10-17T20:20:23.940Z,17.30
2018-10-17T20:22:59.018Z,17.20
2018-10-17T20:25:33.321Z,17.20
2018-10-17T20:28:08.819Z,17.10
2018-10-17T20:30:42.546Z,17.10
2018-10-17T20:33:14.462Z,17.00
2018-10-17T20:35:46.789Z,16.90
2018-10-17T20:38:25.830Z,16.90
2018-10-17T20:40:59.363Z,16.90
2018-10-17T20:43:33.051Z,16.80
2018-10-17T20:46:05.977Z,16.80
2018-10-17T20:48:40.441Z,16.70
2018-10-17T20:51:17.557Z,16.70
2018-10-17T20:53:46.299Z,16.70
2018-10-17T20:56:15.164Z,16.60
2018-10-17T20:58:48.831Z,16.60
2018-10-17T21:01:21.913Z,16.60
2018-10-17T21:03:55.288Z,16.50
2018-10-17T21:06:29.624Z,16.50
2018-10-17T21:09:02.683Z,16.50
2018-10-17T21:11:36.093Z,16.50
2018-10-17T21:14:04.872Z,16.50
2018-10-17T21:16:33.674Z,16.50
2018-10-17T21:19:02.422Z,16.40
2018-10-17T21:21:31.132Z,16.40
2018-10-17T21:23:59.858Z,16.40
2018-10-17T21:26:28.605Z,16.40
2018-10-17T21:28:57.321Z,16.40
2018-10-17T21:31:26.000Z,16.30
2018-10-17T21:33:54.751Z,16.30
2018-10-17T21:36:23.463Z,16.30
2018-10-17T21:38:52.248Z,16.30
2018-10-17T21:41:20.966Z,16.20
2018-10-17T21:43:54.062Z,16.20
2018-10-17T21:46:22.781Z,16.10
2018-10-17T21:48:51.536Z,16.10
2018-10-17T21:51:20.252Z,16.10
2018-10-17T21:53:49.037Z,16.00
2018-10-17T21:56:17.742Z,16.00
2018-10-17T21:58:46.492Z,16.00
2018-10-17T22:01:15.254Z,16.00
2018-10-17T22:03:46.872Z,16.00
2018-10-17T22:06:17.694Z,16.00
2018-10-17T22:08:49.111Z,16.00
2018-10-17T22:11:17.936Z,16.00
2018-10-17T22:13:48.371Z,16.00
2018-10-17T22:16:18.105Z,15.90
2018-10-17T22:18:51.379Z,15.90
2018-10-17T22:21:20.050Z,15.90
2018-10-17T22:23:49.591Z,15.90
2018-10-17T22:26:19.712Z,15.80
2018-10-17T22:28:48.566Z,15.80
2018-10-17T22:31:17.278Z,15.80
2018-10-17T22:33:46.053Z,15.70
2018-10-17T22:36:14.827Z,15.70
2018-10-17T22:38:45.081Z,15.70
2018-10-17T22:41:14.054Z,15.70
2018-10-17T22:43:42.763Z,15.60
2018-10-17T22:46:11.477Z,15.60
2018-10-17T22:48:42.642Z,15.60
2018-10-17T22:51:11.484Z,15.60
2018-10-17T22:53:40.254Z,15.50
2018-10-17T22:56:13.716Z,15.50
2018-10-17T22:58:45.183Z,15.50
2018-10-17T23:01:14.095Z,15.40
2018-10-17T23:03:42.866Z,15.40
2018-10-17T23:06:14.513Z,15.40
2018-10-17T23:08:44.939Z,15.40
2018-10-17T23:11:13.772Z,15.40
2018-10-17T23:13:42.438Z,15.40
2018-10-17T23:16:11.346Z,15.30
2018-10-17T23:18:41.448Z,15.30
2018-10-17T23:21:10.440Z,15.30
2018-10-17T23:23:41.413Z,15.30
2018-10-17T23:26:10.411Z,15.20
2018-10-17T23:28:39.177Z,15.20
2018-10-17T23:31:08.009Z,15.20
2018-10-17T23:33:36.724Z,15.20
2018-10-17T23:36:05.425Z,15.20
2018-10-17T23:38:35.005Z,15.20
2018-10-17T23:41:03.705Z,15.10
2018-10-17T23:43:32.390Z,15.10
2018-10-17T23:46:01.138Z,15.10
2018-10-17T23:48:29.832Z,15.10
2018-10-17T23:50:58.497Z,15.10
2018-10-17T23:53:27.163Z,15.00
2018-10-17T23:55:55.891Z,15.00
2018-10-17T23:58:24.681Z,14.90
